Terminal Aerodrome Forecast
Issued by NWS

Home | Current Version | Previous Version | Text Only | Print | Product List | Glossary On
Versions: 1 2 3 4 5 6 7 8 9 10 11 12 13 14
000
FTUS45 KRIW 230500
TAFJAC
TAF
KJAC 230526Z 2306/2406 VRB05KT P6SM SCT080 BKN200
     FM231200 VRB05KT P6SM BKN090
     FM231800 19014G22KT P6SM SCT080 BKN150
     FM240000 20010KT P6SM SCT060 BKN100
      AMD LTD TO CLD VIS AND WIND=

USA.gov is the U.S. government's official web portal to all federal, state and local government web resources and services.